createdAt,value
2023-04-27T00:01:11.072Z,4.15
2023-04-27T00:03:38.562Z,4.30
2023-04-27T00:06:05.761Z,4.15
2023-04-27T00:08:32.340Z,4.50
2023-04-27T00:10:59.009Z,4.80
2023-04-27T00:13:25.584Z,4.13
2023-04-27T00:15:52.827Z,4.40
2023-04-27T00:18:19.770Z,3.78
2023-04-27T00:20:46.828Z,4.05
2023-04-27T00:23:13.705Z,3.78
2023-04-27T00:25:40.318Z,3.83
2023-04-27T00:28:06.904Z,4.28
2023-04-27T00:30:33.495Z,3.72
2023-04-27T00:33:00.292Z,3.80
2023-04-27T00:35:27.022Z,3.65
2023-04-27T00:37:54.888Z,4.07
2023-04-27T00:40:21.661Z,3.70
2023-04-27T00:42:48.224Z,3.60
2023-04-27T00:45:14.848Z,3.45
2023-04-27T00:47:42.452Z,3.30
2023-04-27T00:50:10.471Z,3.70
2023-04-27T00:52:37.485Z,3.92
2023-04-27T00:55:05.226Z,3.88
2023-04-27T00:57:33.764Z,3.95
2023-04-27T01:00:01.177Z,3.90
2023-04-27T01:02:28.546Z,3.95
2023-04-27T01:04:55.811Z,3.42
2023-04-27T01:07:26.561Z,3.78
2023-04-27T01:09:53.371Z,3.95
2023-04-27T01:12:19.900Z,3.58
2023-04-27T01:14:46.553Z,3.67
2023-04-27T01:17:13.965Z,3.17
2023-04-27T01:19:40.559Z,3.40
2023-04-27T01:22:07.186Z,3.85
2023-04-27T01:24:33.934Z,3.85
2023-04-27T01:27:01.606Z,3.35
2023-04-27T01:29:28.330Z,2.90
2023-04-27T01:31:54.920Z,3.45
2023-04-27T01:34:21.671Z,3.25
2023-04-27T01:36:48.271Z,3.33
2023-04-27T01:39:15.160Z,3.85
2023-04-27T01:41:41.954Z,3.33
2023-04-27T01:44:08.625Z,3.50
2023-04-27T01:46:35.281Z,3.47
2023-04-27T01:49:01.978Z,3.78
2023-04-27T01:51:28.620Z,3.00
2023-04-27T01:53:55.341Z,3.10
2023-04-27T01:56:21.974Z,3.55
2023-04-27T01:58:48.536Z,3.20
2023-04-27T02:01:15.214Z,3.20
2023-04-27T02:03:42.033Z,3.70
2023-04-27T02:06:09.388Z,3.55
2023-04-27T02:08:36.198Z,3.25
2023-04-27T02:11:02.924Z,3.58
2023-04-27T02:13:29.533Z,2.92
2023-04-27T02:15:56.388Z,3.40
2023-04-27T02:18:23.114Z,2.90
2023-04-27T02:20:49.890Z,3.17
2023-04-27T02:23:16.633Z,3.08
2023-04-27T02:25:46.552Z,3.00
2023-04-27T02:28:13.983Z,3.08
2023-04-27T02:30:41.047Z,2.80
2023-04-27T02:33:07.705Z,2.90
2023-04-27T02:35:34.440Z,3.03
2023-04-27T02:38:01.117Z,2.72
2023-04-27T02:40:27.767Z,2.85
2023-04-27T02:42:54.440Z,3.45
2023-04-27T02:45:21.082Z,2.80
2023-04-27T02:47:47.843Z,2.88
2023-04-27T02:50:14.551Z,2.92
2023-04-27T02:52:41.098Z,2.72
2023-04-27T02:55:10.629Z,2.97
2023-04-27T02:57:37.286Z,3.20
2023-04-27T03:00:06.737Z,2.45
2023-04-27T03:02:33.412Z,2.75
2023-04-27T03:05:00.227Z,2.90
2023-04-27T03:07:26.796Z,3.13
2023-04-27T03:09:53.352Z,3.65
2023-04-27T03:12:19.900Z,2.85
2023-04-27T03:14:46.495Z,2.65
2023-04-27T03:17:13.040Z,2.90
2023-04-27T03:19:39.622Z,2.80
2023-04-27T03:22:06.180Z,2.38
2023-04-27T03:24:33.288Z,2.78
2023-04-27T03:26:59.922Z,2.75
2023-04-27T03:29:26.775Z,2.47
2023-04-27T03:31:53.452Z,2.97
2023-04-27T03:34:21.766Z,3.20
2023-04-27T03:36:48.411Z,2.92
2023-04-27T03:39:15.245Z,2.40
2023-04-27T03:41:42.368Z,2.67
2023-04-27T03:44:09.073Z,2.45
2023-04-27T03:46:36.074Z,2.92
2023-04-27T03:49:02.830Z,2.88
2023-04-27T03:51:33.001Z,2.72
2023-04-27T03:54:00.041Z,3.20
2023-04-27T03:56:26.613Z,2.70
2023-04-27T03:58:53.166Z,2.55
2023-04-27T04:01:19.806Z,2.80
2023-04-27T04:03:47.739Z,2.40
2023-04-27T04:06:14.518Z,2.50
2023-04-27T04:08:42.119Z,2.40
2023-04-27T04:11:08.668Z,2.55
2023-04-27T04:13:36.064Z,2.75
2023-04-27T04:16:07.768Z,2.50
2023-04-27T04:18:35.579Z,2.50
2023-04-27T04:21:02.827Z,2.53
2023-04-27T04:23:29.816Z,2.28
2023-04-27T04:25:56.672Z,2.40
2023-04-27T04:28:23.970Z,2.40
2023-04-27T04:30:51.643Z,2.80
2023-04-27T04:33:18.635Z,3.33
2023-04-27T04:35:46.092Z,3.45
2023-04-27T04:38:13.096Z,3.60
2023-04-27T04:40:39.957Z,3.60
2023-04-27T04:43:06.781Z,3.45
2023-04-27T04:45:33.387Z,3.30
2023-04-27T04:48:01.229Z,3.42
2023-04-27T04:50:27.921Z,3.33
2023-04-27T04:52:54.585Z,3.20
2023-04-27T04:55:21.244Z,3.08
2023-04-27T04:57:48.048Z,2.90
2023-04-27T05:00:14.906Z,2.92
2023-04-27T05:02:41.685Z,2.38
2023-04-27T05:05:09.153Z,3.17
2023-04-27T05:07:35.813Z,3.17
2023-04-27T05:10:02.494Z,2.70
2023-04-27T05:12:29.148Z,3.05
2023-04-27T05:14:55.816Z,2.50
2023-04-27T05:17:22.378Z,2.15
2023-04-27T05:19:49.257Z,2.28
2023-04-27T05:22:15.905Z,2.45
2023-04-27T05:24:42.479Z,2.30
2023-04-27T05:27:09.022Z,2.20
2023-04-27T05:29:35.699Z,2.60
2023-04-27T05:32:02.356Z,2.10
2023-04-27T05:34:29.020Z,2.05
2023-04-27T05:36:56.004Z,2.17
2023-04-27T05:39:22.561Z,2.25
2023-04-27T05:41:49.169Z,2.13
2023-04-27T05:44:15.839Z,2.20
2023-04-27T05:46:42.407Z,2.25
2023-04-27T05:49:09.012Z,2.20
2023-04-27T05:51:35.649Z,2.00
2023-04-27T05:54:02.241Z,2.15
2023-04-27T05:56:28.895Z,1.88
2023-04-27T05:58:55.489Z,2.17
2023-04-27T06:01:22.054Z,1.83
2023-04-27T06:03:48.921Z,2.20
2023-04-27T06:06:15.695Z,1.90
2023-04-27T06:08:42.519Z,1.95
2023-04-27T06:11:09.142Z,1.95
2023-04-27T06:13:35.734Z,1.90
2023-04-27T06:16:02.388Z,2.00
2023-04-27T06:18:29.158Z,2.10
2023-04-27T06:21:01.133Z,1.52
2023-04-27T06:23:27.868Z,1.90
2023-04-27T06:25:54.482Z,1.70
2023-04-27T06:28:21.203Z,1.90
2023-04-27T06:30:47.924Z,1.90
2023-04-27T06:33:14.495Z,1.90
2023-04-27T06:35:41.217Z,1.70
2023-04-27T06:38:08.186Z,1.90
2023-04-27T06:40:35.787Z,1.73
2023-04-27T06:43:02.328Z,1.70
2023-04-27T06:45:28.929Z,1.70
2023-04-27T06:47:56.106Z,1.60
2023-04-27T06:50:22.723Z,1.80
2023-04-27T06:52:49.355Z,2.10
2023-04-27T06:55:15.963Z,1.65
2023-04-27T06:57:42.504Z,1.70
2023-04-27T07:00:09.807Z,1.80
2023-04-27T07:02:38.801Z,1.27
2023-04-27T07:05:05.807Z,1.80
2023-04-27T07:07:32.490Z,2.00
2023-04-27T07:09:59.068Z,1.73
2023-04-27T07:12:25.677Z,1.70
2023-04-27T07:14:52.257Z,1.50
2023-04-27T07:17:18.852Z,1.60
2023-04-27T07:19:45.501Z,1.60
2023-04-27T07:22:12.160Z,1.65
2023-04-27T07:24:38.725Z,1.50
2023-04-27T07:27:05.269Z,1.45
2023-04-27T07:29:32.225Z,1.67
2023-04-27T07:31:59.292Z,1.90
2023-04-27T07:34:26.087Z,1.98
2023-04-27T07:36:55.591Z,1.90
2023-04-27T07:39:22.233Z,1.60
2023-04-27T07:41:49.934Z,1.73
2023-04-27T07:44:18.611Z,1.58
2023-04-27T07:46:47.493Z,1.58
2023-04-27T07:49:14.664Z,1.63
2023-04-27T07:51:41.666Z,1.50
2023-04-27T07:54:08.402Z,1.40
2023-04-27T07:56:35.018Z,1.60
2023-04-27T07:59:01.652Z,1.52
2023-04-27T08:01:28.265Z,1.50
2023-04-27T08:03:55.003Z,1.60
2023-04-27T08:06:22.281Z,1.48
2023-04-27T08:08:49.480Z,1.48
2023-04-27T08:11:16.184Z,1.35
2023-04-27T08:13:42.757Z,1.52
2023-04-27T08:16:09.335Z,1.70
2023-04-27T08:18:36.001Z,1.38
2023-04-27T08:21:02.650Z,1.55
2023-04-27T08:23:32.804Z,1.38
2023-04-27T08:25:59.360Z,1.40
2023-04-27T08:28:26.027Z,1.42
2023-04-27T08:30:52.615Z,1.40
2023-04-27T08:33:19.224Z,1.38
2023-04-27T08:35:45.846Z,1.40
2023-04-27T08:38:12.668Z,1.30
2023-04-27T08:40:45.992Z,1.50
2023-04-27T08:43:12.628Z,1.58
2023-04-27T08:45:46.918Z,1.50
2023-04-27T08:48:13.768Z,1.30
2023-04-27T08:50:43.625Z,1.45
2023-04-27T08:53:23.071Z,1.48
2023-04-27T08:55:50.575Z,1.42
2023-04-27T08:58:17.284Z,1.30
2023-04-27T09:00:45.985Z,1.40
2023-04-27T09:03:25.601Z,1.40
2023-04-27T09:06:03.444Z,1.23
2023-04-27T09:08:47.597Z,1.35
2023-04-27T09:11:15.307Z,1.20
2023-04-27T09:13:45.200Z,1.35
2023-04-27T09:16:15.096Z,1.52
2023-04-27T09:18:43.528Z,1.20
2023-04-27T09:21:10.633Z,1.25
2023-04-27T09:23:38.618Z,1.10
2023-04-27T09:26:10.794Z,1.30
2023-04-27T09:31:05.345Z,1.38
2023-04-27T09:33:33.747Z,1.27
2023-04-27T09:36:05.582Z,1.30
2023-04-27T09:38:32.711Z,1.05
2023-04-27T09:41:00.298Z,1.42
2023-04-27T09:43:28.646Z,1.48
2023-04-27T09:45:56.187Z,1.38
2023-04-27T09:48:24.040Z,1.10
2023-04-27T09:50:52.002Z,1.13
2023-04-27T09:53:33.647Z,1.13
2023-04-27T09:56:14.194Z,1.30
2023-04-27T09:59:01.819Z,1.30
2023-04-27T10:01:48.555Z,1.45
2023-04-27T10:04:49.081Z,1.13
2023-04-27T10:07:17.227Z,1.20
2023-04-27T10:09:47.180Z,1.40
2023-04-27T10:12:43.066Z,1.23
2023-04-27T10:15:16.811Z,1.25
2023-04-27T10:17:52.962Z,1.30
2023-04-27T10:20:29.651Z,1.27
2023-04-27T10:22:56.554Z,1.25
2023-04-27T10:25:27.200Z,1.23
2023-04-27T10:28:00.232Z,1.25
2023-04-27T10:30:32.325Z,1.13
2023-04-27T10:33:04.197Z,1.20
2023-04-27T10:35:43.185Z,1.40
2023-04-27T10:38:11.039Z,1.20
2023-04-27T10:40:38.874Z,1.02
2023-04-27T10:43:13.389Z,1.10
2023-04-27T10:45:40.974Z,1.10
2023-04-27T10:48:08.205Z,1.00
2023-04-27T10:50:35.185Z,1.42
2023-04-27T10:53:05.598Z,1.35
2023-04-27T10:55:32.328Z,1.25
2023-04-27T10:58:00.027Z,1.48
2023-04-27T11:00:38.573Z,1.20
2023-04-27T11:03:17.284Z,1.13
2023-04-27T11:05:45.574Z,1.40
2023-04-27T11:08:15.025Z,1.30
2023-04-27T11:10:50.375Z,1.40
2023-04-27T11:13:22.570Z,1.10
2023-04-27T11:15:54.646Z,1.13
2023-04-27T11:18:23.537Z,1.10
2023-04-27T11:20:52.716Z,1.25
2023-04-27T11:23:27.145Z,1.30
2023-04-27T11:25:54.322Z,1.20
2023-04-27T11:28:22.316Z,1.08
2023-04-27T11:30:59.414Z,1.20
2023-04-27T11:33:27.049Z,1.35
2023-04-27T11:35:54.161Z,1.15
2023-04-27T11:38:21.638Z,1.20
2023-04-27T11:41:03.622Z,1.00
2023-04-27T11:43:30.341Z,0.95
2023-04-27T11:45:58.214Z,0.95
2023-04-27T11:48:25.352Z,0.98
2023-04-27T11:50:53.371Z,1.20
2023-04-27T11:53:31.009Z,0.80
2023-04-27T11:56:00.984Z,1.10
2023-04-27T11:58:29.382Z,1.33
2023-04-27T12:00:57.746Z,0.88
2023-04-27T12:03:26.017Z,1.08
2023-04-27T12:05:53.073Z,1.20
2023-04-27T12:08:20.317Z,1.05
2023-04-27T12:10:47.108Z,1.20
2023-04-27T12:13:14.358Z,1.10
2023-04-27T12:15:42.254Z,1.00
2023-04-27T12:18:10.144Z,0.98
2023-04-27T12:20:37.020Z,0.95
2023-04-27T12:23:03.618Z,0.77
2023-04-27T12:25:30.370Z,1.05
2023-04-27T12:27:57.704Z,1.25
2023-04-27T12:30:24.360Z,1.10
2023-04-27T12:32:51.240Z,1.13
2023-04-27T12:35:18.127Z,1.05
2023-04-27T12:37:44.851Z,1.10
2023-04-27T12:40:12.323Z,1.02
2023-04-27T12:42:39.050Z,1.10
2023-04-27T12:45:06.143Z,0.90
2023-04-27T12:47:54.015Z,1.08
2023-04-27T12:50:21.402Z,1.10
2023-04-27T12:52:48.188Z,0.80
2023-04-27T12:55:28.899Z,1.00
2023-04-27T12:57:59.413Z,0.98
2023-04-27T13:00:26.143Z,1.20
2023-04-27T13:02:53.355Z,1.20
2023-04-27T13:05:21.373Z,0.90
2023-04-27T13:07:48.129Z,1.23
2023-04-27T13:10:14.842Z,0.98
2023-04-27T13:12:41.558Z,1.23
2023-04-27T13:15:09.010Z,1.10
2023-04-27T13:17:35.593Z,1.00
2023-04-27T13:20:02.192Z,1.00
2023-04-27T13:22:28.916Z,1.17
2023-04-27T13:24:55.556Z,1.00
2023-04-27T13:27:25.085Z,1.00
2023-04-27T13:29:51.733Z,1.08
2023-04-27T13:32:18.651Z,0.80
2023-04-27T13:34:45.409Z,0.90
2023-04-27T13:37:11.978Z,0.90
2023-04-27T13:39:38.616Z,1.00
2023-04-27T13:42:06.116Z,1.00
2023-04-27T13:44:32.722Z,1.00
2023-04-27T13:46:59.360Z,0.88
2023-04-27T13:49:26.107Z,0.80
2023-04-27T13:51:52.948Z,1.08
2023-04-27T13:54:21.306Z,0.93
2023-04-27T13:56:47.894Z,0.80
2023-04-27T13:59:16.163Z,0.93
2023-04-27T14:01:43.014Z,1.00
2023-04-27T14:04:10.052Z,1.02
2023-04-27T14:06:36.779Z,0.98
2023-04-27T14:09:03.904Z,0.90
2023-04-27T14:11:30.728Z,1.10
2023-04-27T14:13:58.021Z,0.90
2023-04-27T14:16:24.791Z,0.80
2023-04-27T14:18:52.288Z,0.82
2023-04-27T14:21:19.065Z,1.10
2023-04-27T14:23:46.478Z,0.90
2023-04-27T14:26:13.182Z,1.00
2023-04-27T14:28:40.586Z,0.90
2023-04-27T14:31:07.136Z,1.00
2023-04-27T14:33:33.692Z,0.90
2023-04-27T14:36:00.638Z,0.77
2023-04-27T14:38:27.512Z,1.05
2023-04-27T14:40:54.158Z,0.80
2023-04-27T14:43:21.162Z,0.95
2023-04-27T14:45:54.009Z,0.85
2023-04-27T14:48:22.225Z,0.80
2023-04-27T14:50:48.933Z,0.90
2023-04-27T14:53:15.744Z,0.93
2023-04-27T14:55:45.535Z,0.73
2023-04-27T14:58:12.337Z,0.70
2023-04-27T15:00:39.772Z,0.90
2023-04-27T15:03:06.646Z,0.88
2023-04-27T15:05:33.484Z,1.00
2023-04-27T15:08:01.433Z,1.05
2023-04-27T15:10:28.114Z,0.90
2023-04-27T15:12:54.737Z,0.90
2023-04-27T15:15:21.388Z,1.10
2023-04-27T15:17:48.043Z,0.90
2023-04-27T15:20:14.681Z,0.98
2023-04-27T15:22:41.691Z,0.93
2023-04-27T15:25:08.727Z,0.80
2023-04-27T15:27:36.133Z,0.95
2023-04-27T15:30:04.012Z,0.98
2023-04-27T15:32:35.320Z,1.00
2023-04-27T15:35:02.413Z,1.02
2023-04-27T15:37:29.722Z,0.90
2023-04-27T15:39:59.828Z,0.90
2023-04-27T15:42:26.486Z,0.80
2023-04-27T15:44:53.093Z,0.80
2023-04-27T15:47:19.689Z,0.80
2023-04-27T15:49:56.996Z,1.02
2023-04-27T15:52:26.339Z,0.88
2023-04-27T15:54:52.963Z,0.88
2023-04-27T15:57:19.550Z,0.90
2023-04-27T15:59:46.247Z,0.85
2023-04-27T16:02:13.650Z,0.85
2023-04-27T16:04:40.564Z,0.75
2023-04-27T16:07:07.278Z,0.90
2023-04-27T16:09:34.308Z,1.05
2023-04-27T16:12:01.829Z,0.82
2023-04-27T16:14:28.437Z,0.82
2023-04-27T16:16:59.379Z,0.95
2023-04-27T16:19:27.303Z,0.77
2023-04-27T16:21:54.091Z,0.80
2023-04-27T16:24:21.124Z,1.00
2023-04-27T16:26:47.930Z,0.80
2023-04-27T16:29:14.626Z,0.90
2023-04-27T16:31:42.591Z,0.70
2023-04-27T16:34:09.304Z,0.95
2023-04-27T16:36:35.867Z,0.98
2023-04-27T16:39:04.771Z,0.90
2023-04-27T16:41:31.365Z,0.70
2023-04-27T16:43:58.210Z,1.00
2023-04-27T16:46:25.131Z,0.70
2023-04-27T16:48:51.785Z,0.70
2023-04-27T16:51:18.466Z,0.85
2023-04-27T16:53:45.796Z,0.90
2023-04-27T16:56:13.639Z,0.88
2023-04-27T16:58:41.002Z,0.80
2023-04-27T17:01:07.875Z,0.90
2023-04-27T17:03:35.823Z,0.70
2023-04-27T17:06:02.932Z,0.70
2023-04-27T17:08:29.581Z,1.05
2023-04-27T17:10:56.311Z,0.60
2023-04-27T17:13:22.917Z,0.80
2023-04-27T17:15:50.084Z,0.88
2023-04-27T17:18:16.980Z,0.73
2023-04-27T17:20:43.637Z,0.73
2023-04-27T17:23:10.295Z,0.70
2023-04-27T17:25:36.865Z,0.98
2023-04-27T17:28:03.667Z,0.70
2023-04-27T17:30:30.319Z,0.98
2023-04-27T17:32:57.087Z,0.70
2023-04-27T17:35:23.865Z,0.75
2023-04-27T17:37:51.798Z,0.70
2023-04-27T17:40:20.791Z,0.70
2023-04-27T17:42:47.730Z,0.80
2023-04-27T17:45:14.953Z,0.70
2023-04-27T17:47:42.004Z,0.70
2023-04-27T17:50:09.299Z,0.80
2023-04-27T17:52:36.244Z,0.80
2023-04-27T17:55:02.968Z,0.75
2023-04-27T17:57:29.586Z,0.73
2023-04-27T17:59:56.202Z,0.80
2023-04-27T18:02:23.121Z,0.75
2023-04-27T18:04:49.991Z,0.70
2023-04-27T18:07:18.518Z,0.80
2023-04-27T18:09:45.319Z,0.80
2023-04-27T18:12:12.004Z,0.70
2023-04-27T18:14:38.849Z,1.00
2023-04-27T18:17:05.898Z,0.70
2023-04-27T18:19:32.560Z,0.80
2023-04-27T18:21:59.386Z,0.77
2023-04-27T18:24:26.027Z,0.70
2023-04-27T18:26:52.618Z,0.60
2023-04-27T18:29:19.193Z,0.75
2023-04-27T18:31:46.234Z,5.28
2023-04-27T18:34:14.251Z,4.75
2023-04-27T18:36:40.968Z,5.15
2023-04-27T18:39:07.591Z,3.85
2023-04-27T18:41:34.203Z,3.88
2023-04-27T18:44:05.544Z,3.60
2023-04-27T18:46:32.846Z,2.88
2023-04-27T18:49:00.466Z,2.42
2023-04-27T18:51:27.237Z,2.92
2023-04-27T18:53:53.851Z,2.53
2023-04-27T18:56:20.751Z,2.60
2023-04-27T18:58:48.647Z,2.53
2023-04-27T19:01:26.572Z,3.78
2023-04-27T19:03:53.834Z,3.53
2023-04-27T19:06:21.397Z,3.30
2023-04-27T19:08:48.303Z,3.10
2023-04-27T19:11:15.139Z,2.80
2023-04-27T19:13:43.703Z,2.60
2023-04-27T19:16:11.390Z,2.83
2023-04-27T19:18:38.536Z,2.80
2023-04-27T19:21:05.561Z,3.63
2023-04-27T19:23:32.415Z,3.33
2023-04-27T19:26:09.731Z,2.95
2023-04-27T19:28:39.176Z,2.67
2023-04-27T19:31:06.895Z,2.70
2023-04-27T19:33:33.779Z,2.80
2023-04-27T19:36:00.851Z,2.80
2023-04-27T19:38:27.545Z,2.65
2023-04-27T19:40:54.252Z,2.70
2023-04-27T19:43:20.962Z,2.90
2023-04-27T19:45:51.090Z,2.42
2023-04-27T19:48:17.814Z,2.72
2023-04-27T19:50:44.581Z,2.42
2023-04-27T19:53:11.278Z,2.60
2023-04-27T19:55:38.136Z,2.40
2023-04-27T19:58:04.868Z,2.47
2023-04-27T20:00:32.435Z,2.83
2023-04-27T20:02:59.566Z,2.55
2023-04-27T20:05:26.972Z,2.40
2023-04-27T20:07:54.419Z,2.75
2023-04-27T20:10:21.561Z,1.90
2023-04-27T20:12:56.148Z,2.40
2023-04-27T20:15:24.534Z,2.35
2023-04-27T20:17:52.116Z,2.47
2023-04-27T20:20:19.229Z,2.40
2023-04-27T20:22:45.987Z,2.20
2023-04-27T20:25:14.547Z,2.22
2023-04-27T20:27:41.552Z,2.58
2023-04-27T20:30:08.778Z,2.28
2023-04-27T20:32:36.148Z,2.20
2023-04-27T20:35:04.333Z,2.30
2023-04-27T20:37:32.099Z,2.50
2023-04-27T20:39:59.305Z,2.50
2023-04-27T20:42:25.927Z,2.38
2023-04-27T20:44:54.797Z,2.22
2023-04-27T20:47:21.780Z,2.30
2023-04-27T20:49:48.624Z,2.50
2023-04-27T20:52:15.390Z,2.60
2023-04-27T20:54:42.321Z,2.10
2023-04-27T20:57:13.285Z,2.05
2023-04-27T20:59:41.029Z,2.10
2023-04-27T21:02:07.837Z,1.95
2023-04-27T21:04:34.551Z,2.03
2023-04-27T21:07:01.264Z,1.90
2023-04-27T21:09:27.886Z,2.17
2023-04-27T21:11:54.539Z,2.17
2023-04-27T21:14:21.158Z,2.28
2023-04-27T21:16:47.896Z,2.47
2023-04-27T21:19:16.439Z,2.22
2023-04-27T21:21:43.286Z,2.38
2023-04-27T21:24:11.126Z,1.95
2023-04-27T21:26:37.689Z,2.05
2023-04-27T21:29:05.861Z,2.10
2023-04-27T21:31:33.234Z,1.88
2023-04-27T21:34:00.130Z,1.70
2023-04-27T21:36:26.810Z,2.00
2023-04-27T21:38:53.379Z,2.17
2023-04-27T21:41:20.221Z,1.73
2023-04-27T21:43:46.822Z,2.08
2023-04-27T21:46:13.422Z,2.30
2023-04-27T21:48:39.995Z,1.90
2023-04-27T21:51:06.606Z,2.00
2023-04-27T21:53:33.239Z,1.98
2023-04-27T21:55:59.922Z,1.73
2023-04-27T21:58:26.495Z,1.98
2023-04-27T22:00:53.118Z,1.67
2023-04-27T22:03:19.950Z,1.90
2023-04-27T22:05:48.773Z,2.03
2023-04-27T22:08:17.121Z,1.70
2023-04-27T22:10:44.471Z,2.00
2023-04-27T22:13:19.013Z,2.08
2023-04-27T22:15:46.415Z,2.00
2023-04-27T22:18:14.388Z,1.92
2023-04-27T22:20:41.531Z,1.80
2023-04-27T22:23:09.232Z,1.67
2023-04-27T22:25:36.049Z,1.83
2023-04-27T22:28:02.675Z,1.77
2023-04-27T22:30:29.758Z,1.83
2023-04-27T22:32:56.643Z,1.70
2023-04-27T22:35:27.023Z,1.75
2023-04-27T22:37:55.972Z,2.10
2023-04-27T22:40:22.860Z,1.80
2023-04-27T22:42:49.484Z,2.03
2023-04-27T22:45:16.203Z,1.85
2023-04-27T22:47:44.576Z,1.52
2023-04-27T22:50:12.422Z,1.60
2023-04-27T22:52:42.158Z,1.85
2023-04-27T22:55:09.966Z,1.83
2023-04-27T22:57:37.084Z,1.60
2023-04-27T23:00:05.366Z,1.70
2023-04-27T23:02:32.254Z,1.58
2023-04-27T23:04:59.203Z,1.52
2023-04-27T23:07:25.852Z,1.40
2023-04-27T23:09:52.710Z,1.77
2023-04-27T23:12:20.608Z,1.70
2023-04-27T23:14:47.290Z,1.65
2023-04-27T23:17:15.425Z,1.63
2023-04-27T23:19:42.110Z,1.90
2023-04-27T23:22:08.673Z,1.52
2023-04-27T23:24:35.254Z,1.77
2023-04-27T23:27:02.005Z,1.80
2023-04-27T23:29:30.147Z,1.60
2023-04-27T23:32:04.412Z,1.60
2023-04-27T23:34:34.143Z,1.33
2023-04-27T23:37:00.908Z,1.52
2023-04-27T23:39:28.368Z,1.50
2023-04-27T23:41:55.060Z,1.50
2023-04-27T23:44:22.092Z,1.50
2023-04-27T23:46:48.756Z,1.40
2023-04-27T23:49:15.580Z,1.63
2023-04-27T23:51:42.248Z,1.63
2023-04-27T23:54:09.713Z,1.80
2023-04-27T23:56:40.768Z,1.50
2023-04-27T23:59:07.328Z,1.67
